sensor_id;sensor_type;location;lat;lon;timestamp;P1;durP1;ratioP1;P2;durP2;ratioP2
73474;SDS011;61711;52.266;10.542;2022-09-03T00:00:19;1.67;;;1.58;;
73474;SDS011;61711;52.266;10.542;2022-09-03T00:02:58;3.15;;;1.60;;
73474;SDS011;61711;52.266;10.542;2022-09-03T00:05:28;2.45;;;1.70;;
73474;SDS011;61711;52.266;10.542;2022-09-03T00:10:28;2.03;;;1.80;;
73474;SDS011;61711;52.266;10.542;2022-09-03T00:12:56;3.05;;;1.70;;
73474;SDS011;61711;52.266;10.542;2022-09-03T00:15:24;1.92;;;1.55;;
73474;SDS011;61711;52.266;10.542;2022-09-03T00:17:52;2.38;;;1.60;;
73474;SDS011;61711;52.266;10.542;2022-09-03T00:23:04;2.65;;;1.67;;
73474;SDS011;61711;52.266;10.542;2022-09-03T00:28:01;2.63;;;1.65;;
73474;SDS011;61711;52.266;10.542;2022-09-03T00:30:29;2.75;;;1.67;;
73474;SDS011;61711;52.266;10.542;2022-09-03T00:35:22;1.63;;;1.52;;
73474;SDS011;61711;52.266;10.542;2022-09-03T00:37:50;2.67;;;1.55;;
73474;SDS011;61711;52.266;10.542;2022-09-03T00:40:20;2.83;;;1.55;;
73474;SDS011;61711;52.266;10.542;2022-09-03T00:42:53;2.47;;;1.80;;
73474;SDS011;61711;52.266;10.542;2022-09-03T00:45:47;2.53;;;1.58;;
73474;SDS011;61711;52.266;10.542;2022-09-03T00:48:20;1.92;;;1.70;;
73474;SDS011;61711;52.266;10.542;2022-09-03T00:50:54;3.58;;;1.73;;
73474;SDS011;61711;52.266;10.542;2022-09-03T01:01:04;2.33;;;1.40;;
73474;SDS011;61711;52.266;10.542;2022-09-03T01:03:39;2.47;;;1.60;;
73474;SDS011;61711;52.266;10.542;2022-09-03T01:13:52;2.42;;;1.60;;
73474;SDS011;61711;52.266;10.542;2022-09-03T01:45:17;2.63;;;1.48;;
73474;SDS011;61711;52.266;10.542;2022-09-03T01:52:54;3.25;;;1.40;;
73474;SDS011;61711;52.266;10.542;2022-09-03T01:55:33;2.13;;;1.40;;
73474;SDS011;61711;52.266;10.542;2022-09-03T01:58:08;2.00;;;1.50;;
73474;SDS011;61711;52.266;10.542;2022-09-03T02:00:37;2.45;;;1.50;;
73474;SDS011;61711;52.266;10.542;2022-09-03T02:03:05;2.20;;;1.40;;
73474;SDS011;61711;52.266;10.542;2022-09-03T02:05:31;3.60;;;1.35;;
73474;SDS011;61711;52.266;10.542;2022-09-03T02:10:27;3.50;;;1.60;;
73474;SDS011;61711;52.266;10.542;2022-09-03T02:13:04;2.78;;;1.60;;
73474;SDS011;61711;52.266;10.542;2022-09-03T02:15:31;2.30;;;1.30;;
73474;SDS011;61711;52.266;10.542;2022-09-03T02:18:00;1.67;;;1.30;;
73474;SDS011;61711;52.266;10.542;2022-09-03T02:20:27;2.15;;;1.50;;
73474;SDS011;61711;52.266;10.542;2022-09-03T02:22:54;3.33;;;1.73;;
73474;SDS011;61711;52.266;10.542;2022-09-03T02:25:21;3.40;;;1.30;;
73474;SDS011;61711;52.266;10.542;2022-09-03T02:27:48;2.28;;;1.42;;
73474;SDS011;61711;52.266;10.542;2022-09-03T02:30:15;1.95;;;1.45;;
73474;SDS011;61711;52.266;10.542;2022-09-03T02:32:42;2.47;;;1.45;;
73474;SDS011;61711;52.266;10.542;2022-09-03T02:35:08;3.50;;;1.63;;
73474;SDS011;61711;52.266;10.542;2022-09-03T02:37:34;5.72;;;1.60;;
73474;SDS011;61711;52.266;10.542;2022-09-03T02:40:01;2.25;;;1.40;;
73474;SDS011;61711;52.266;10.542;2022-09-03T02:42:31;2.30;;;1.30;;
73474;SDS011;61711;52.266;10.542;2022-09-03T02:45:44;2.55;;;1.40;;
73474;SDS011;61711;52.266;10.542;2022-09-03T02:47:44;2.22;;;1.50;;
73474;SDS011;61711;52.266;10.542;2022-09-03T02:50:12;2.95;;;1.60;;
73474;SDS011;61711;52.266;10.542;2022-09-03T02:52:38;1.88;;;1.50;;
73474;SDS011;61711;52.266;10.542;2022-09-03T02:55:04;1.77;;;1.42;;
73474;SDS011;61711;52.266;10.542;2022-09-03T02:57:30;1.67;;;1.52;;
73474;SDS011;61711;52.266;10.542;2022-09-03T02:59:56;1.95;;;1.50;;
73474;SDS011;61711;52.266;10.542;2022-09-03T03:02:22;2.35;;;1.40;;
73474;SDS011;61711;52.266;10.542;2022-09-03T03:04:48;5.28;;;1.77;;
73474;SDS011;61711;52.266;10.542;2022-09-03T03:07:15;1.60;;;1.40;;
73474;SDS011;61711;52.266;10.542;2022-09-03T03:09:41;1.70;;;1.40;;
73474;SDS011;61711;52.266;10.542;2022-09-03T03:12:08;1.92;;;1.52;;
73474;SDS011;61711;52.266;10.542;2022-09-03T03:14:34;5.57;;;1.75;;
73474;SDS011;61711;52.266;10.542;2022-09-03T03:17:00;1.50;;;1.35;;
73474;SDS011;61711;52.266;10.542;2022-09-03T03:19:26;1.55;;;1.35;;
73474;SDS011;61711;52.266;10.542;2022-09-03T03:21:52;2.70;;;1.60;;
73474;SDS011;61711;52.266;10.542;2022-09-03T03:24:18;2.08;;;1.55;;
73474;SDS011;61711;52.266;10.542;2022-09-03T03:26:44;2.22;;;1.63;;
73474;SDS011;61711;52.266;10.542;2022-09-03T03:29:13;6.38;;;1.70;;
73474;SDS011;61711;52.266;10.542;2022-09-03T03:31:40;1.50;;;1.40;;
73474;SDS011;61711;52.266;10.542;2022-09-03T03:34:06;2.75;;;1.50;;
73474;SDS011;61711;52.266;10.542;2022-09-03T03:36:32;3.40;;;1.60;;
73474;SDS011;61711;52.266;10.542;2022-09-03T03:38:58;2.30;;;1.50;;
73474;SDS011;61711;52.266;10.542;2022-09-03T03:41:26;2.53;;;1.60;;
73474;SDS011;61711;52.266;10.542;2022-09-03T03:43:53;3.53;;;1.75;;
73474;SDS011;61711;52.266;10.542;2022-09-03T03:46:20;4.57;;;1.35;;
73474;SDS011;61711;52.266;10.542;2022-09-03T03:48:47;2.47;;;1.50;;
73474;SDS011;61711;52.266;10.542;2022-09-03T03:51:13;3.45;;;1.40;;
73474;SDS011;61711;52.266;10.542;2022-09-03T03:53:39;1.80;;;1.58;;
73474;SDS011;61711;52.266;10.542;2022-09-03T03:56:06;2.90;;;1.70;;
73474;SDS011;61711;52.266;10.542;2022-09-03T03:58:33;1.85;;;1.50;;
73474;SDS011;61711;52.266;10.542;2022-09-03T04:01:33;3.92;;;1.50;;
73474;SDS011;61711;52.266;10.542;2022-09-03T04:03:55;1.75;;;1.40;;
73474;SDS011;61711;52.266;10.542;2022-09-03T04:06:21;4.03;;;1.85;;
73474;SDS011;61711;52.266;10.542;2022-09-03T04:08:48;3.80;;;1.88;;
73474;SDS011;61711;52.266;10.542;2022-09-03T04:11:15;2.50;;;1.60;;
73474;SDS011;61711;52.266;10.542;2022-09-03T04:13:43;4.60;;;1.70;;
73474;SDS011;61711;52.266;10.542;2022-09-03T04:16:10;3.05;;;1.52;;
73474;SDS011;61711;52.266;10.542;2022-09-03T04:18:37;3.40;;;1.63;;
73474;SDS011;61711;52.266;10.542;2022-09-03T04:21:10;2.28;;;1.60;;
73474;SDS011;61711;52.266;10.542;2022-09-03T04:26:03;1.90;;;1.50;;
73474;SDS011;61711;52.266;10.542;2022-09-03T04:28:29;3.53;;;1.80;;
73474;SDS011;61711;52.266;10.542;2022-09-03T04:30:59;3.55;;;1.70;;
73474;SDS011;61711;52.266;10.542;2022-09-03T04:33:25;3.15;;;1.65;;
73474;SDS011;61711;52.266;10.542;2022-09-03T04:35:51;3.22;;;1.70;;
73474;SDS011;61711;52.266;10.542;2022-09-03T04:38:17;7.93;;;2.00;;
73474;SDS011;61711;52.266;10.542;2022-09-03T04:40:43;3.20;;;2.08;;
73474;SDS011;61711;52.266;10.542;2022-09-03T04:43:16;3.55;;;1.77;;
73474;SDS011;61711;52.266;10.542;2022-09-03T04:45:42;3.70;;;1.60;;
73474;SDS011;61711;52.266;10.542;2022-09-03T04:48:08;5.85;;;1.90;;
73474;SDS011;61711;52.266;10.542;2022-09-03T04:50:35;2.65;;;2.03;;
73474;SDS011;61711;52.266;10.542;2022-09-03T04:53:02;5.07;;;2.10;;
73474;SDS011;61711;52.266;10.542;2022-09-03T04:55:38;4.38;;;2.17;;
73474;SDS011;61711;52.266;10.542;2022-09-03T04:58:04;3.40;;;1.80;;
73474;SDS011;61711;52.266;10.542;2022-09-03T05:00:31;1.90;;;1.70;;
73474;SDS011;61711;52.266;10.542;2022-09-03T05:03:01;2.65;;;1.85;;
73474;SDS011;61711;52.266;10.542;2022-09-03T05:05:29;2.22;;;1.65;;
73474;SDS011;61711;52.266;10.542;2022-09-03T05:08:01;3.78;;;1.88;;
73474;SDS011;61711;52.266;10.542;2022-09-03T05:10:27;5.40;;;2.20;;
73474;SDS011;61711;52.266;10.542;2022-09-03T05:13:00;2.25;;;1.55;;
73474;SDS011;61711;52.266;10.542;2022-09-03T05:15:27;2.08;;;1.80;;
73474;SDS011;61711;52.266;10.542;2022-09-03T05:17:59;3.47;;;1.90;;
73474;SDS011;61711;52.266;10.542;2022-09-03T05:20:28;3.28;;;1.90;;
73474;SDS011;61711;52.266;10.542;2022-09-03T05:23:04;2.70;;;1.88;;
73474;SDS011;61711;52.266;10.542;2022-09-03T05:25:30;4.10;;;1.98;;
73474;SDS011;61711;52.266;10.542;2022-09-03T05:27:56;5.57;;;2.05;;
73474;SDS011;61711;52.266;10.542;2022-09-03T05:30:22;6.82;;;1.95;;
73474;SDS011;61711;52.266;10.542;2022-09-03T05:32:50;5.53;;;2.00;;
73474;SDS011;61711;52.266;10.542;2022-09-03T05:35:16;3.67;;;1.95;;
73474;SDS011;61711;52.266;10.542;2022-09-03T05:37:43;2.60;;;1.70;;
73474;SDS011;61711;52.266;10.542;2022-09-03T05:40:09;2.17;;;1.88;;
73474;SDS011;61711;52.266;10.542;2022-09-03T05:42:36;3.97;;;1.88;;
73474;SDS011;61711;52.266;10.542;2022-09-03T05:45:04;2.25;;;1.98;;
73474;SDS011;61711;52.266;10.542;2022-09-03T05:47:32;4.30;;;1.67;;
73474;SDS011;61711;52.266;10.542;2022-09-03T05:49:58;4.10;;;2.15;;
73474;SDS011;61711;52.266;10.542;2022-09-03T05:52:24;3.70;;;1.95;;
73474;SDS011;61711;52.266;10.542;2022-09-03T05:54:50;7.28;;;2.20;;
73474;SDS011;61711;52.266;10.542;2022-09-03T05:57:16;3.83;;;2.20;;
73474;SDS011;61711;52.266;10.542;2022-09-03T05:59:42;4.05;;;1.90;;
73474;SDS011;61711;52.266;10.542;2022-09-03T06:02:08;2.88;;;2.20;;
73474;SDS011;61711;52.266;10.542;2022-09-03T06:04:34;2.85;;;2.08;;
73474;SDS011;61711;52.266;10.542;2022-09-03T06:07:01;3.88;;;2.03;;
73474;SDS011;61711;52.266;10.542;2022-09-03T06:09:27;2.38;;;1.90;;
73474;SDS011;61711;52.266;10.542;2022-09-03T06:11:53;3.45;;;1.90;;
73474;SDS011;61711;52.266;10.542;2022-09-03T06:14:19;8.85;;;2.42;;
73474;SDS011;61711;52.266;10.542;2022-09-03T06:16:46;3.45;;;2.10;;
73474;SDS011;61711;52.266;10.542;2022-09-03T06:19:13;5.57;;;2.60;;
73474;SDS011;61711;52.266;10.542;2022-09-03T06:21:40;3.85;;;1.80;;
73474;SDS011;61711;52.266;10.542;2022-09-03T06:24:07;2.70;;;1.83;;
73474;SDS011;61711;52.266;10.542;2022-09-03T06:26:34;4.43;;;1.83;;
73474;SDS011;61711;52.266;10.542;2022-09-03T06:29:00;3.50;;;1.85;;
73474;SDS011;61711;52.266;10.542;2022-09-03T06:31:26;5.55;;;1.90;;
73474;SDS011;61711;52.266;10.542;2022-09-03T06:33:52;4.15;;;2.10;;
73474;SDS011;61711;52.266;10.542;2022-09-03T06:36:19;4.55;;;2.20;;
73474;SDS011;61711;52.266;10.542;2022-09-03T06:38:46;2.60;;;2.10;;
73474;SDS011;61711;52.266;10.542;2022-09-03T06:41:16;4.40;;;2.10;;
73474;SDS011;61711;52.266;10.542;2022-09-03T06:43:49;2.92;;;1.88;;
73474;SDS011;61711;52.266;10.542;2022-09-03T06:46:17;3.33;;;2.03;;
73474;SDS011;61711;52.266;10.542;2022-09-03T06:48:43;3.83;;;2.13;;
73474;SDS011;61711;52.266;10.542;2022-09-03T06:51:11;3.20;;;2.08;;
73474;SDS011;61711;52.266;10.542;2022-09-03T06:53:38;4.93;;;1.92;;
73474;SDS011;61711;52.266;10.542;2022-09-03T06:56:06;3.22;;;2.05;;
73474;SDS011;61711;52.266;10.542;2022-09-03T06:58:33;4.18;;;2.00;;
73474;SDS011;61711;52.266;10.542;2022-09-03T07:01:07;3.30;;;2.10;;
73474;SDS011;61711;52.266;10.542;2022-09-03T07:03:34;3.15;;;1.90;;
73474;SDS011;61711;52.266;10.542;2022-09-03T07:06:01;3.65;;;2.08;;
73474;SDS011;61711;52.266;10.542;2022-09-03T07:08:27;7.82;;;2.30;;
73474;SDS011;61711;52.266;10.542;2022-09-03T07:10:54;5.53;;;2.17;;
73474;SDS011;61711;52.266;10.542;2022-09-03T07:13:20;3.72;;;2.35;;
73474;SDS011;61711;52.266;10.542;2022-09-03T07:15:46;3.58;;;2.10;;
73474;SDS011;61711;52.266;10.542;2022-09-03T07:18:12;4.07;;;2.17;;
73474;SDS011;61711;52.266;10.542;2022-09-03T07:20:38;2.95;;;1.90;;
73474;SDS011;61711;52.266;10.542;2022-09-03T07:23:04;6.03;;;2.30;;
73474;SDS011;61711;52.266;10.542;2022-09-03T07:25:30;2.67;;;2.20;;
73474;SDS011;61711;52.266;10.542;2022-09-03T07:27:56;3.47;;;2.38;;
73474;SDS011;61711;52.266;10.542;2022-09-03T07:30:23;2.50;;;2.10;;
73474;SDS011;61711;52.266;10.542;2022-09-03T07:32:50;5.38;;;2.28;;
73474;SDS011;61711;52.266;10.542;2022-09-03T07:35:18;4.50;;;2.10;;
73474;SDS011;61711;52.266;10.542;2022-09-03T07:37:44;2.20;;;2.00;;
73474;SDS011;61711;52.266;10.542;2022-09-03T07:40:10;5.80;;;2.08;;
73474;SDS011;61711;52.266;10.542;2022-09-03T07:42:36;4.70;;;2.30;;
73474;SDS011;61711;52.266;10.542;2022-09-03T07:45:05;3.22;;;2.13;;
73474;SDS011;61711;52.266;10.542;2022-09-03T07:47:34;4.65;;;2.30;;
73474;SDS011;61711;52.266;10.542;2022-09-03T07:50:00;4.38;;;2.10;;
73474;SDS011;61711;52.266;10.542;2022-09-03T07:52:26;2.60;;;2.05;;
73474;SDS011;61711;52.266;10.542;2022-09-03T07:54:52;4.07;;;2.20;;
73474;SDS011;61711;52.266;10.542;2022-09-03T07:57:19;3.78;;;2.38;;
73474;SDS011;61711;52.266;10.542;2022-09-03T07:59:45;3.38;;;2.08;;
73474;SDS011;61711;52.266;10.542;2022-09-03T08:02:11;5.82;;;2.20;;
73474;SDS011;61711;52.266;10.542;2022-09-03T08:04:38;3.75;;;2.40;;
73474;SDS011;61711;52.266;10.542;2022-09-03T08:07:05;4.05;;;2.35;;
73474;SDS011;61711;52.266;10.542;2022-09-03T08:09:31;2.75;;;1.90;;
73474;SDS011;61711;52.266;10.542;2022-09-03T08:11:57;4.18;;;2.10;;
73474;SDS011;61711;52.266;10.542;2022-09-03T08:14:23;3.90;;;2.30;;
73474;SDS011;61711;52.266;10.542;2022-09-03T08:16:49;3.55;;;2.20;;
73474;SDS011;61711;52.266;10.542;2022-09-03T08:19:16;3.92;;;2.20;;
73474;SDS011;61711;52.266;10.542;2022-09-03T08:21:42;3.03;;;2.00;;
73474;SDS011;61711;52.266;10.542;2022-09-03T08:24:09;3.00;;;1.73;;
73474;SDS011;61711;52.266;10.542;2022-09-03T08:26:36;4.40;;;2.33;;
73474;SDS011;61711;52.266;10.542;2022-09-03T08:29:03;2.47;;;2.13;;
73474;SDS011;61711;52.266;10.542;2022-09-03T08:31:29;5.30;;;2.30;;
73474;SDS011;61711;52.266;10.542;2022-09-03T08:33:56;8.80;;;2.75;;
73474;SDS011;61711;52.266;10.542;2022-09-03T08:36:24;3.67;;;2.20;;
73474;SDS011;61711;52.266;10.542;2022-09-03T08:38:51;10.77;;;2.30;;
73474;SDS011;61711;52.266;10.542;2022-09-03T08:44:03;5.07;;;2.20;;
73474;SDS011;61711;52.266;10.542;2022-09-03T08:46:40;4.80;;;2.20;;
73474;SDS011;61711;52.266;10.542;2022-09-03T08:49:09;3.33;;;1.88;;
73474;SDS011;61711;52.266;10.542;2022-09-03T08:51:36;3.97;;;1.80;;
73474;SDS011;61711;52.266;10.542;2022-09-03T08:54:04;6.03;;;2.30;;
73474;SDS011;61711;52.266;10.542;2022-09-03T08:56:32;2.75;;;1.90;;
73474;SDS011;61711;52.266;10.542;2022-09-03T08:59:02;3.00;;;2.08;;
73474;SDS011;61711;52.266;10.542;2022-09-03T09:01:32;2.65;;;1.92;;
73474;SDS011;61711;52.266;10.542;2022-09-03T09:14:37;5.15;;;2.03;;
73474;SDS011;61711;52.266;10.542;2022-09-03T09:20:00;6.32;;;1.80;;
73474;SDS011;61711;52.266;10.542;2022-09-03T09:22:34;3.17;;;1.40;;
73474;SDS011;61711;52.266;10.542;2022-09-03T09:25:03;3.97;;;1.43;;
73474;SDS011;61711;52.266;10.542;2022-09-03T09:27:33;2.63;;;1.42;;
73474;SDS011;61711;52.266;10.542;2022-09-03T09:30:00;4.47;;;1.63;;
73474;SDS011;61711;52.266;10.542;2022-09-03T09:32:28;4.28;;;1.75;;
73474;SDS011;61711;52.266;10.542;2022-09-03T09:34:56;1.67;;;1.50;;
73474;SDS011;61711;52.266;10.542;2022-09-03T09:37:22;3.28;;;1.73;;
73474;SDS011;61711;52.266;10.542;2022-09-03T09:39:55;5.03;;;1.58;;
73474;SDS011;61711;52.266;10.542;2022-09-03T09:42:22;2.80;;;1.70;;
73474;SDS011;61711;52.266;10.542;2022-09-03T09:44:49;4.18;;;1.73;;
73474;SDS011;61711;52.266;10.542;2022-09-03T09:47:20;2.85;;;1.42;;
73474;SDS011;61711;52.266;10.542;2022-09-03T09:52:13;2.78;;;1.48;;
73474;SDS011;61711;52.266;10.542;2022-09-03T09:54:41;5.80;;;1.77;;
73474;SDS011;61711;52.266;10.542;2022-09-03T09:57:12;2.55;;;1.30;;
73474;SDS011;61711;52.266;10.542;2022-09-03T09:59:42;4.90;;;1.75;;
73474;SDS011;61711;52.266;10.542;2022-09-03T10:02:10;2.47;;;1.50;;
73474;SDS011;61711;52.266;10.542;2022-09-03T10:04:37;5.30;;;1.45;;
73474;SDS011;61711;52.266;10.542;2022-09-03T10:07:37;3.25;;;1.30;;
73474;SDS011;61711;52.266;10.542;2022-09-03T10:10:00;2.33;;;1.63;;
73474;SDS011;61711;52.266;10.542;2022-09-03T10:12:29;2.10;;;1.67;;
73474;SDS011;61711;52.266;10.542;2022-09-03T10:20:14;3.03;;;1.70;;
73474;SDS011;61711;52.266;10.542;2022-09-03T10:22:56;6.60;;;2.20;;
73474;SDS011;61711;52.266;10.542;2022-09-03T10:25:26;2.20;;;1.67;;
73474;SDS011;61711;52.266;10.542;2022-09-03T10:27:53;1.45;;;1.35;;
73474;SDS011;61711;52.266;10.542;2022-09-03T10:30:20;1.70;;;1.50;;
73474;SDS011;61711;52.266;10.542;2022-09-03T10:33:29;3.03;;;1.65;;
73474;SDS011;61711;52.266;10.542;2022-09-03T10:35:38;3.22;;;1.83;;
73474;SDS011;61711;52.266;10.542;2022-09-03T10:38:09;4.15;;;2.00;;
73474;SDS011;61711;52.266;10.542;2022-09-03T10:40:39;4.80;;;1.80;;
73474;SDS011;61711;52.266;10.542;2022-09-03T10:46:15;1.80;;;1.60;;
73474;SDS011;61711;52.266;10.542;2022-09-03T10:51:40;3.45;;;2.10;;
73474;SDS011;61711;52.266;10.542;2022-09-03T11:07:06;4.82;;;1.77;;
73474;SDS011;61711;52.266;10.542;2022-09-03T11:09:37;4.03;;;1.80;;
73474;SDS011;61711;52.266;10.542;2022-09-03T11:12:08;3.33;;;1.88;;
73474;SDS011;61711;52.266;10.542;2022-09-03T11:14:52;3.38;;;1.70;;
73474;SDS011;61711;52.266;10.542;2022-09-03T11:17:24;2.10;;;1.58;;
73474;SDS011;61711;52.266;10.542;2022-09-03T11:19:54;4.97;;;1.95;;
73474;SDS011;61711;52.266;10.542;2022-09-03T11:22:22;3.42;;;1.63;;
73474;SDS011;61711;52.266;10.542;2022-09-03T11:24:53;3.47;;;1.70;;
73474;SDS011;61711;52.266;10.542;2022-09-03T11:29:58;3.33;;;1.60;;
73474;SDS011;61711;52.266;10.542;2022-09-03T11:32:30;2.72;;;1.50;;
73474;SDS011;61711;52.266;10.542;2022-09-03T11:34:59;5.55;;;1.65;;
73474;SDS011;61711;52.266;10.542;2022-09-03T11:37:26;3.55;;;1.88;;
73474;SDS011;61711;52.266;10.542;2022-09-03T11:39:56;3.00;;;1.70;;
73474;SDS011;61711;52.266;10.542;2022-09-03T11:42:27;5.13;;;1.70;;
73474;SDS011;61711;52.266;10.542;2022-09-03T11:44:58;2.08;;;1.40;;
73474;SDS011;61711;52.266;10.542;2022-09-03T11:47:37;3.70;;;1.60;;
73474;SDS011;61711;52.266;10.542;2022-09-03T11:52:45;2.88;;;1.80;;
73474;SDS011;61711;52.266;10.542;2022-09-03T11:55:11;1.83;;;1.50;;
73474;SDS011;61711;52.266;10.542;2022-09-03T11:57:40;2.58;;;1.48;;
73474;SDS011;61711;52.266;10.542;2022-09-03T12:00:14;2.30;;;1.40;;
73474;SDS011;61711;52.266;10.542;2022-09-03T12:02:46;4.25;;;1.60;;
73474;SDS011;61711;52.266;10.542;2022-09-03T12:10:21;3.08;;;1.70;;
73474;SDS011;61711;52.266;10.542;2022-09-03T12:13:12;2.33;;;1.42;;
73474;SDS011;61711;52.266;10.542;2022-09-03T12:15:44;3.13;;;1.58;;
73474;SDS011;61711;52.266;10.542;2022-09-03T12:18:35;2.88;;;1.40;;
73474;SDS011;61711;52.266;10.542;2022-09-03T12:21:02;2.15;;;1.58;;
73474;SDS011;61711;52.266;10.542;2022-09-03T12:23:42;2.67;;;1.40;;
73474;SDS011;61711;52.266;10.542;2022-09-03T12:26:11;2.75;;;1.50;;
73474;SDS011;61711;52.266;10.542;2022-09-03T12:28:39;2.55;;;1.50;;
73474;SDS011;61711;52.266;10.542;2022-09-03T12:31:24;4.47;;;1.85;;
73474;SDS011;61711;52.266;10.542;2022-09-03T12:36:22;1.40;;;1.30;;
73474;SDS011;61711;52.266;10.542;2022-09-03T12:38:48;2.38;;;1.55;;
73474;SDS011;61711;52.266;10.542;2022-09-03T12:41:22;4.38;;;1.30;;
73474;SDS011;61711;52.266;10.542;2022-09-03T12:43:52;1.25;;;1.10;;
73474;SDS011;61711;52.266;10.542;2022-09-03T12:46:21;1.58;;;1.33;;
73474;SDS011;61711;52.266;10.542;2022-09-03T12:48:53;2.20;;;1.40;;
73474;SDS011;61711;52.266;10.542;2022-09-03T12:51:20;3.17;;;1.55;;
73474;SDS011;61711;52.266;10.542;2022-09-03T12:53:46;2.78;;;1.30;;
73474;SDS011;61711;52.266;10.542;2022-09-03T12:56:13;3.28;;;1.42;;
73474;SDS011;61711;52.266;10.542;2022-09-03T12:58:46;3.08;;;1.60;;
73474;SDS011;61711;52.266;10.542;2022-09-03T13:01:17;5.35;;;1.52;;
73474;SDS011;61711;52.266;10.542;2022-09-03T13:03:47;2.80;;;1.60;;
73474;SDS011;61711;52.266;10.542;2022-09-03T13:06:20;5.75;;;1.52;;
73474;SDS011;61711;52.266;10.542;2022-09-03T13:08:52;4.85;;;2.20;;
73474;SDS011;61711;52.266;10.542;2022-09-03T13:11:20;4.25;;;2.10;;
73474;SDS011;61711;52.266;10.542;2022-09-03T13:13:54;2.33;;;1.50;;
73474;SDS011;61711;52.266;10.542;2022-09-03T13:24:22;3.63;;;1.60;;
73474;SDS011;61711;52.266;10.542;2022-09-03T13:29:29;1.77;;;1.42;;
73474;SDS011;61711;52.266;10.542;2022-09-03T13:32:07;3.78;;;1.45;;
73474;SDS011;61711;52.266;10.542;2022-09-03T13:34:39;4.10;;;1.48;;
73474;SDS011;61711;52.266;10.542;2022-09-03T13:39:58;1.70;;;1.60;;
73474;SDS011;61711;52.266;10.542;2022-09-03T13:47:39;2.60;;;1.70;;
73474;SDS011;61711;52.266;10.542;2022-09-03T13:50:28;2.72;;;1.50;;
73474;SDS011;61711;52.266;10.542;2022-09-03T13:52:57;3.20;;;1.90;;
73474;SDS011;61711;52.266;10.542;2022-09-03T13:55:45;6.60;;;1.80;;
73474;SDS011;61711;52.266;10.542;2022-09-03T14:16:06;3.88;;;1.70;;
73474;SDS011;61711;52.266;10.542;2022-09-03T14:21:19;3.63;;;2.03;;
73474;SDS011;61711;52.266;10.542;2022-09-03T14:26:17;4.50;;;2.03;;
73474;SDS011;61711;52.266;10.542;2022-09-03T14:28:48;4.25;;;2.10;;
73474;SDS011;61711;52.266;10.542;2022-09-03T14:31:18;3.10;;;2.13;;
73474;SDS011;61711;52.266;10.542;2022-09-03T14:33:54;3.35;;;1.75;;
73474;SDS011;61711;52.266;10.542;2022-09-03T14:36:26;2.67;;;2.08;;
73474;SDS011;61711;52.266;10.542;2022-09-03T14:43:56;3.95;;;2.00;;
73474;SDS011;61711;52.266;10.542;2022-09-03T15:01:35;3.93;;;2.13;;
73474;SDS011;61711;52.266;10.542;2022-09-03T15:06:44;5.35;;;2.28;;
73474;SDS011;61711;52.266;10.542;2022-09-03T15:11:48;3.63;;;1.97;;
73474;SDS011;61711;52.266;10.542;2022-09-03T15:14:17;4.28;;;1.75;;
73474;SDS011;61711;52.266;10.542;2022-09-03T15:22:45;4.95;;;2.30;;
73474;SDS011;61711;52.266;10.542;2022-09-03T15:25:18;4.22;;;2.00;;
73474;SDS011;61711;52.266;10.542;2022-09-03T15:30:44;2.38;;;1.90;;
73474;SDS011;61711;52.266;10.542;2022-09-03T15:38:41;4.55;;;2.20;;
73474;SDS011;61711;52.266;10.542;2022-09-03T15:43:59;3.47;;;2.25;;
73474;SDS011;61711;52.266;10.542;2022-09-03T15:48:55;3.65;;;1.98;;
73474;SDS011;61711;52.266;10.542;2022-09-03T15:51:30;4.57;;;2.35;;
73474;SDS011;61711;52.266;10.542;2022-09-03T15:56:48;4.60;;;2.40;;
73474;SDS011;61711;52.266;10.542;2022-09-03T15:59:17;4.65;;;2.20;;
73474;SDS011;61711;52.266;10.542;2022-09-03T16:01:46;4.18;;;2.35;;
73474;SDS011;61711;52.266;10.542;2022-09-03T16:04:26;4.07;;;2.30;;
73474;SDS011;61711;52.266;10.542;2022-09-03T16:09:45;4.22;;;2.28;;
73474;SDS011;61711;52.266;10.542;2022-09-03T16:14:48;3.75;;;2.30;;
73474;SDS011;61711;52.266;10.542;2022-09-03T16:30:09;2.83;;;2.53;;
73474;SDS011;61711;52.266;10.542;2022-09-03T16:32:42;2.80;;;2.38;;
73474;SDS011;61711;52.266;10.542;2022-09-03T16:37:45;6.57;;;2.63;;
73474;SDS011;61711;52.266;10.542;2022-09-03T16:50:31;4.57;;;2.60;;
73474;SDS011;61711;52.266;10.542;2022-09-03T16:58:20;4.63;;;2.38;;
73474;SDS011;61711;52.266;10.542;2022-09-03T17:11:17;7.05;;;2.60;;
73474;SDS011;61711;52.266;10.542;2022-09-03T17:18:50;2.78;;;2.45;;
73474;SDS011;61711;52.266;10.542;2022-09-03T17:21:23;5.60;;;2.55;;
73474;SDS011;61711;52.266;10.542;2022-09-03T17:26:31;4.43;;;3.20;;
73474;SDS011;61711;52.266;10.542;2022-09-03T17:37:00;5.25;;;3.38;;
73474;SDS011;61711;52.266;10.542;2022-09-03T17:39:36;3.10;;;2.80;;
73474;SDS011;61711;52.266;10.542;2022-09-03T17:49:53;5.57;;;3.85;;
73474;SDS011;61711;52.266;10.542;2022-09-03T17:54:50;4.30;;;3.17;;
73474;SDS011;61711;52.266;10.542;2022-09-03T17:59:56;5.60;;;3.20;;
73474;SDS011;61711;52.266;10.542;2022-09-03T18:03:06;8.52;;;3.00;;
73474;SDS011;61711;52.266;10.542;2022-09-03T18:05:23;5.22;;;2.72;;
73474;SDS011;61711;52.266;10.542;2022-09-03T18:07:55;8.55;;;3.20;;
73474;SDS011;61711;52.266;10.542;2022-09-03T18:10:44;6.47;;;3.50;;
73474;SDS011;61711;52.266;10.542;2022-09-03T18:16:14;5.25;;;3.47;;
73474;SDS011;61711;52.266;10.542;2022-09-03T18:18:47;7.13;;;4.63;;
73474;SDS011;61711;52.266;10.542;2022-09-03T18:21:22;5.78;;;2.83;;
73474;SDS011;61711;52.266;10.542;2022-09-03T18:24:20;4.07;;;3.25;;
73474;SDS011;61711;52.266;10.542;2022-09-03T18:27:08;3.55;;;3.20;;
73474;SDS011;61711;52.266;10.542;2022-09-03T18:30:08;5.93;;;3.60;;
73474;SDS011;61711;52.266;10.542;2022-09-03T18:32:53;4.50;;;3.45;;
73474;SDS011;61711;52.266;10.542;2022-09-03T18:35:38;5.25;;;4.00;;
73474;SDS011;61711;52.266;10.542;2022-09-03T18:38:24;6.68;;;4.30;;
73474;SDS011;61711;52.266;10.542;2022-09-03T18:41:15;9.30;;;4.50;;
73474;SDS011;61711;52.266;10.542;2022-09-03T18:44:23;8.82;;;4.07;;
73474;SDS011;61711;52.266;10.542;2022-09-03T18:50:07;7.28;;;3.45;;
73474;SDS011;61711;52.266;10.542;2022-09-03T18:53:02;5.63;;;3.20;;
73474;SDS011;61711;52.266;10.542;2022-09-03T18:58:55;5.63;;;3.03;;
73474;SDS011;61711;52.266;10.542;2022-09-03T19:01:43;4.68;;;3.22;;
73474;SDS011;61711;52.266;10.542;2022-09-03T19:07:46;3.30;;;2.97;;
73474;SDS011;61711;52.266;10.542;2022-09-03T19:13:35;8.77;;;3.38;;
73474;SDS011;61711;52.266;10.542;2022-09-03T19:22:02;4.60;;;3.28;;
73474;SDS011;61711;52.266;10.542;2022-09-03T19:24:51;4.55;;;3.30;;
73474;SDS011;61711;52.266;10.542;2022-09-03T19:27:39;6.38;;;3.10;;
73474;SDS011;61711;52.266;10.542;2022-09-03T19:30:41;4.75;;;3.00;;
73474;SDS011;61711;52.266;10.542;2022-09-03T19:33:41;3.53;;;3.00;;
73474;SDS011;61711;52.266;10.542;2022-09-03T19:36:33;5.95;;;3.28;;
73474;SDS011;61711;52.266;10.542;2022-09-03T19:39:35;5.47;;;3.57;;
73474;SDS011;61711;52.266;10.542;2022-09-03T19:53:57;6.93;;;3.08;;
73474;SDS011;61711;52.266;10.542;2022-09-03T19:56:43;9.35;;;3.00;;
73474;SDS011;61711;52.266;10.542;2022-09-03T19:59:32;4.00;;;3.00;;
73474;SDS011;61711;52.266;10.542;2022-09-03T20:02:18;8.52;;;3.20;;
73474;SDS011;61711;52.266;10.542;2022-09-03T20:05:04;5.45;;;3.40;;
73474;SDS011;61711;52.266;10.542;2022-09-03T20:07:51;4.65;;;3.10;;
73474;SDS011;61711;52.266;10.542;2022-09-03T20:10:38;5.60;;;3.45;;
73474;SDS011;61711;52.266;10.542;2022-09-03T20:13:10;6.00;;;3.20;;